createdAt,value
2019-03-30T00:00:26.886Z,8.33
2019-03-30T00:02:55.364Z,9.13
2019-03-30T00:05:24.153Z,9.10
2019-03-30T00:07:52.637Z,8.63
2019-03-30T00:10:21.120Z,9.35
2019-03-30T00:12:49.600Z,9.03
2019-03-30T00:15:18.111Z,8.60
2019-03-30T00:17:46.556Z,9.38
2019-03-30T00:20:15.040Z,9.03
2019-03-30T00:22:43.445Z,9.35
2019-03-30T00:25:11.865Z,9.05
2019-03-30T00:27:40.351Z,9.78
2019-03-30T00:30:08.836Z,10.15
2019-03-30T00:32:37.244Z,9.93
2019-03-30T00:35:06.743Z,9.63
2019-03-30T00:37:35.152Z,9.50
2019-03-30T00:40:04.304Z,9.45
2019-03-30T00:42:32.712Z,9.93
2019-03-30T00:45:01.128Z,9.65
2019-03-30T00:47:29.543Z,10.53
2019-03-30T00:49:57.952Z,10.35
2019-03-30T00:52:26.369Z,10.82
2019-03-30T00:54:54.860Z,10.48
2019-03-30T00:57:23.278Z,10.32
2019-03-30T00:59:51.688Z,9.98
2019-03-30T01:02:20.100Z,10.20
2019-03-30T01:04:48.585Z,10.88
2019-03-30T01:07:17.022Z,10.72
2019-03-30T01:09:45.434Z,11.65
2019-03-30T01:12:13.860Z,9.98
2019-03-30T01:14:42.268Z,10.60
2019-03-30T01:17:10.956Z,10.65
2019-03-30T01:19:39.363Z,10.90
2019-03-30T01:22:07.916Z,11.20
2019-03-30T01:24:36.400Z,11.73
2019-03-30T01:27:05.143Z,12.43
2019-03-30T01:29:33.564Z,12.15
2019-03-30T01:32:02.087Z,11.48
2019-03-30T01:34:30.546Z,10.98
2019-03-30T01:36:58.959Z,11.22
2019-03-30T01:39:27.462Z,11.88
2019-03-30T01:41:55.942Z,12.13
2019-03-30T01:44:24.424Z,12.33
2019-03-30T01:46:52.845Z,11.20
2019-03-30T01:49:21.264Z,12.63
2019-03-30T01:51:49.681Z,11.73
2019-03-30T01:54:18.093Z,12.82
2019-03-30T01:56:46.661Z,12.00
2019-03-30T01:59:15.081Z,12.30
2019-03-30T02:01:43.488Z,11.70
2019-03-30T02:04:11.904Z,12.45
2019-03-30T02:06:40.348Z,13.00
2019-03-30T02:09:08.769Z,12.93
2019-03-30T02:11:37.214Z,12.63
2019-03-30T02:14:05.633Z,11.83
2019-03-30T02:16:34.117Z,12.13
2019-03-30T02:19:02.620Z,13.08
2019-03-30T02:21:31.024Z,13.05
2019-03-30T02:23:59.528Z,12.35
2019-03-30T02:26:28.076Z,13.25
2019-03-30T02:28:56.488Z,13.53
2019-03-30T02:31:24.973Z,13.88
2019-03-30T02:33:53.465Z,14.13
2019-03-30T02:36:21.961Z,14.07
2019-03-30T02:38:50.586Z,13.72
2019-03-30T02:41:19.071Z,13.55
2019-03-30T02:43:47.553Z,12.05
2019-03-30T02:46:15.977Z,14.38
2019-03-30T02:48:44.492Z,13.18
2019-03-30T02:51:12.990Z,13.78
2019-03-30T02:53:41.400Z,12.68
2019-03-30T02:56:09.937Z,13.13
2019-03-30T02:58:38.428Z,12.93
2019-03-30T03:01:06.914Z,13.58
2019-03-30T03:03:35.569Z,13.70
2019-03-30T03:06:03.985Z,13.98
2019-03-30T03:08:32.473Z,12.07
2019-03-30T03:11:00.886Z,14.78
2019-03-30T03:13:29.309Z,12.68
2019-03-30T03:15:57.733Z,15.48
2019-03-30T03:18:26.213Z,14.95
2019-03-30T03:21:07.432Z,12.78
2019-03-30T03:23:24.765Z,13.62
2019-03-30T03:25:53.173Z,13.43
2019-03-30T03:28:21.691Z,13.28
2019-03-30T03:30:50.089Z,13.35
2019-03-30T03:33:18.573Z,13.65
2019-03-30T03:35:46.990Z,14.05
2019-03-30T03:38:15.455Z,13.45
2019-03-30T03:40:43.819Z,12.33
2019-03-30T03:43:12.247Z,13.85
2019-03-30T03:45:40.737Z,13.98
2019-03-30T03:48:09.156Z,13.70
2019-03-30T03:50:44.523Z,14.15
2019-03-30T03:53:16.051Z,14.15
2019-03-30T03:55:45.009Z,14.53
2019-03-30T03:58:13.685Z,14.33
2019-03-30T04:00:42.104Z,14.85
2019-03-30T04:03:11.276Z,14.68
2019-03-30T04:05:39.957Z,14.68
2019-03-30T04:08:08.933Z,14.83
2019-03-30T04:10:38.118Z,14.68
2019-03-30T04:13:08.275Z,14.87
2019-03-30T04:15:36.789Z,14.80
2019-03-30T04:18:05.278Z,15.65
2019-03-30T04:20:33.761Z,15.72
2019-03-30T04:23:02.181Z,14.70
2019-03-30T04:25:30.669Z,15.35
2019-03-30T04:27:59.081Z,15.45
2019-03-30T04:30:27.573Z,16.20
2019-03-30T04:32:56.015Z,16.15
2019-03-30T04:35:24.411Z,15.50
2019-03-30T04:37:52.833Z,15.85
2019-03-30T04:40:21.253Z,15.65
2019-03-30T04:42:49.738Z,15.98
2019-03-30T04:45:18.264Z,16.35
2019-03-30T04:47:46.690Z,15.35
2019-03-30T04:50:15.105Z,16.52
2019-03-30T04:52:43.587Z,17.15
2019-03-30T04:55:12.008Z,16.40
2019-03-30T04:57:40.483Z,15.25
2019-03-30T05:00:08.840Z,16.23
2019-03-30T05:02:37.252Z,16.30
2019-03-30T05:05:07.112Z,18.17
2019-03-30T05:07:35.527Z,16.40
2019-03-30T05:10:06.885Z,17.35
2019-03-30T05:12:35.383Z,16.00
2019-03-30T05:15:04.939Z,16.40
2019-03-30T05:17:46.796Z,16.30
2019-03-30T05:20:04.280Z,16.23
2019-03-30T05:22:32.700Z,15.45
2019-03-30T05:25:01.356Z,16.87
2019-03-30T05:27:29.843Z,16.82
2019-03-30T05:29:58.253Z,15.50
2019-03-30T05:32:26.702Z,16.27
2019-03-30T05:34:55.156Z,16.12
2019-03-30T05:37:23.569Z,17.07
2019-03-30T05:39:52.002Z,16.85
2019-03-30T05:42:20.559Z,16.23
2019-03-30T05:44:48.977Z,15.98
2019-03-30T05:47:17.391Z,15.40
2019-03-30T05:49:45.875Z,14.87
2019-03-30T05:52:25.752Z,14.93
2019-03-30T05:54:44.437Z,15.65
2019-03-30T05:57:12.959Z,16.67
2019-03-30T05:59:41.401Z,26.35
2019-03-30T06:02:09.881Z,15.88
2019-03-30T06:04:38.371Z,14.78
2019-03-30T06:07:06.864Z,18.17
2019-03-30T06:09:35.396Z,14.00
2019-03-30T06:12:03.886Z,14.70
2019-03-30T06:14:32.363Z,13.70
2019-03-30T06:17:00.997Z,13.28
2019-03-30T06:19:29.523Z,22.52
2019-03-30T06:21:57.904Z,13.45
2019-03-30T06:24:28.349Z,13.35
2019-03-30T06:26:56.850Z,17.35
2019-03-30T06:29:25.365Z,13.22
2019-03-30T06:31:53.768Z,12.98
2019-03-30T06:34:24.111Z,12.43
2019-03-30T06:36:52.547Z,13.53
2019-03-30T06:39:21.056Z,24.70
2019-03-30T06:41:49.536Z,12.78
2019-03-30T06:44:18.085Z,14.28
2019-03-30T06:46:46.568Z,12.53
2019-03-30T06:49:15.052Z,17.10
2019-03-30T06:51:43.607Z,14.00
2019-03-30T06:54:14.639Z,18.77
2019-03-30T06:56:42.104Z,12.30
2019-03-30T06:59:10.597Z,14.07
2019-03-30T07:01:39.080Z,12.50
2019-03-30T07:04:11.053Z,14.03
2019-03-30T07:06:37.643Z,14.65
2019-03-30T07:09:06.202Z,18.07
2019-03-30T07:11:37.872Z,13.48
2019-03-30T07:14:06.363Z,13.60
2019-03-30T07:16:36.728Z,17.67
2019-03-30T07:19:05.383Z,10.95
2019-03-30T07:21:33.801Z,9.68
2019-03-30T07:24:02.284Z,10.60
2019-03-30T07:26:30.902Z,9.88
2019-03-30T07:28:59.393Z,16.67
2019-03-30T07:31:27.956Z,11.68
2019-03-30T07:33:56.369Z,9.78
2019-03-30T07:36:24.859Z,12.80
2019-03-30T07:38:53.353Z,30.85
2019-03-30T07:41:21.777Z,18.45
2019-03-30T07:43:50.251Z,10.13
2019-03-30T07:46:19.803Z,31.65
2019-03-30T07:48:48.367Z,20.08
2019-03-30T07:51:16.854Z,15.55
2019-03-30T07:53:45.354Z,16.57
2019-03-30T07:56:13.841Z,16.42
2019-03-30T07:58:42.256Z,9.40
2019-03-30T08:01:10.766Z,14.78
2019-03-30T08:03:39.156Z,13.93
2019-03-30T08:06:07.573Z,9.58
2019-03-30T08:08:36.063Z,14.28
2019-03-30T08:11:04.559Z,10.68
2019-03-30T08:13:33.057Z,9.98
2019-03-30T08:16:01.600Z,9.35
2019-03-30T08:18:30.085Z,8.40
2019-03-30T08:20:58.577Z,7.83
2019-03-30T08:23:39.867Z,7.95
2019-03-30T08:25:57.280Z,15.38
2019-03-30T08:28:25.723Z,11.80
2019-03-30T08:30:54.208Z,9.13
2019-03-30T08:33:22.630Z,7.40
2019-03-30T08:35:51.128Z,7.35
2019-03-30T08:38:19.652Z,7.62
2019-03-30T08:40:48.141Z,7.90
2019-03-30T08:43:16.632Z,10.58
2019-03-30T08:45:48.687Z,7.62
2019-03-30T08:48:15.259Z,7.20
2019-03-30T08:50:43.848Z,8.63
2019-03-30T08:53:16.369Z,6.65
2019-03-30T08:55:44.980Z,7.55
2019-03-30T08:58:13.414Z,6.97
2019-03-30T09:00:42.369Z,7.45
2019-03-30T09:03:10.897Z,9.68
2019-03-30T09:05:39.465Z,6.30
2019-03-30T09:08:08.215Z,5.95
2019-03-30T09:10:37.650Z,5.90
2019-03-30T09:13:06.089Z,6.35
2019-03-30T09:15:35.157Z,7.03
2019-03-30T09:18:03.644Z,11.68
2019-03-30T09:20:32.056Z,7.10
2019-03-30T09:23:00.468Z,5.92
2019-03-30T09:25:28.909Z,12.82
2019-03-30T09:27:57.745Z,7.67
2019-03-30T09:30:26.237Z,6.37
2019-03-30T09:32:54.728Z,7.45
2019-03-30T09:35:23.154Z,12.90
2019-03-30T09:37:51.571Z,7.65
2019-03-30T09:40:19.992Z,10.20
2019-03-30T09:42:48.537Z,7.25
2019-03-30T09:45:16.968Z,7.80
2019-03-30T09:47:45.467Z,8.30
2019-03-30T09:50:13.884Z,8.63
2019-03-30T09:52:42.303Z,6.80
2019-03-30T09:55:10.797Z,9.18
2019-03-30T09:57:39.214Z,8.03
2019-03-30T10:00:07.704Z,9.35
2019-03-30T10:02:36.117Z,9.20
2019-03-30T10:05:04.987Z,9.38
2019-03-30T10:07:33.403Z,9.33
2019-03-30T10:10:01.899Z,7.47
2019-03-30T10:12:30.389Z,9.55
2019-03-30T10:14:58.827Z,9.35
2019-03-30T10:17:27.314Z,9.53
2019-03-30T10:20:04.383Z,9.38
2019-03-30T10:22:25.868Z,9.00
2019-03-30T10:24:54.349Z,11.43
2019-03-30T10:27:22.897Z,11.63
2019-03-30T10:29:51.279Z,8.50
2019-03-30T10:32:19.958Z,7.15
2019-03-30T10:34:48.846Z,7.17
2019-03-30T10:37:17.428Z,6.97
2019-03-30T10:39:45.929Z,6.72
2019-03-30T10:42:14.408Z,7.72
2019-03-30T10:44:42.820Z,8.33
2019-03-30T10:47:11.356Z,8.20
2019-03-30T10:49:39.720Z,7.33
2019-03-30T10:52:08.302Z,7.72
2019-03-30T10:54:36.723Z,6.70
2019-03-30T10:57:05.140Z,7.95
2019-03-30T10:59:33.556Z,8.73
2019-03-30T11:02:02.048Z,8.15
2019-03-30T11:04:30.548Z,9.20
2019-03-30T11:06:59.031Z,9.45
2019-03-30T11:09:27.448Z,9.83
2019-03-30T11:11:55.934Z,9.15
2019-03-30T11:14:24.431Z,10.03
2019-03-30T11:16:52.853Z,8.15
2019-03-30T11:19:21.334Z,8.68
2019-03-30T11:21:49.844Z,8.65
2019-03-30T11:24:18.425Z,8.30
2019-03-30T11:26:47.006Z,8.60
2019-03-30T11:29:15.379Z,7.83
2019-03-30T11:31:43.781Z,7.67
2019-03-30T11:34:12.193Z,8.60
2019-03-30T11:36:42.466Z,7.12
2019-03-30T11:39:10.914Z,8.10
2019-03-30T11:41:41.704Z,7.03
2019-03-30T11:44:10.115Z,7.70
2019-03-30T11:46:38.605Z,7.08
2019-03-30T11:49:07.092Z,7.15
2019-03-30T11:51:35.501Z,6.25
2019-03-30T11:54:05.465Z,6.45
2019-03-30T11:56:34.111Z,6.58
2019-03-30T11:59:02.524Z,6.80
2019-03-30T12:01:31.021Z,5.55
2019-03-30T12:03:59.424Z,6.10
2019-03-30T12:06:27.840Z,6.28
2019-03-30T12:08:56.252Z,5.78
2019-03-30T12:11:24.760Z,7.75
2019-03-30T12:13:53.235Z,9.10
2019-03-30T12:16:21.652Z,8.43
2019-03-30T12:18:50.158Z,7.97
2019-03-30T12:21:20.405Z,8.68
2019-03-30T12:23:48.859Z,9.60
2019-03-30T12:26:17.360Z,9.55
2019-03-30T12:28:45.797Z,10.25
2019-03-30T12:31:14.216Z,8.65
2019-03-30T12:33:42.780Z,9.78
2019-03-30T12:36:11.344Z,8.43
2019-03-30T12:38:39.769Z,9.15
2019-03-30T12:41:08.188Z,8.68
2019-03-30T12:43:39.006Z,8.80
2019-03-30T12:46:06.815Z,9.08
2019-03-30T12:48:35.307Z,8.93
2019-03-30T12:51:03.737Z,7.60
2019-03-30T12:53:32.220Z,7.70
2019-03-30T12:56:00.720Z,9.53
2019-03-30T12:58:29.208Z,13.75
2019-03-30T13:00:57.703Z,13.15
2019-03-30T13:03:26.132Z,11.18
2019-03-30T13:05:54.546Z,8.30
2019-03-30T13:08:23.041Z,10.78
2019-03-30T13:10:51.531Z,9.90
2019-03-30T13:13:20.102Z,12.55
2019-03-30T13:15:48.544Z,13.40
2019-03-30T13:18:16.968Z,7.67
2019-03-30T13:20:45.388Z,16.40
2019-03-30T13:23:13.884Z,8.95
2019-03-30T13:25:42.372Z,13.70
2019-03-30T13:28:10.815Z,20.23
2019-03-30T13:30:39.291Z,14.28
2019-03-30T13:33:07.708Z,10.30
2019-03-30T13:35:36.136Z,7.65
2019-03-30T13:38:04.553Z,19.67
2019-03-30T13:40:32.972Z,8.88
2019-03-30T13:43:01.460Z,8.35
2019-03-30T13:45:29.976Z,21.87
2019-03-30T13:47:58.469Z,10.10
2019-03-30T13:50:26.895Z,7.10
2019-03-30T13:52:55.310Z,12.55
2019-03-30T13:55:23.835Z,14.60
2019-03-30T13:57:52.249Z,15.05
2019-03-30T14:00:23.760Z,15.00
2019-03-30T14:02:52.160Z,12.05
2019-03-30T14:05:20.581Z,16.02
2019-03-30T14:07:49.102Z,10.43
2019-03-30T14:10:17.574Z,19.85
2019-03-30T14:12:46.124Z,14.50
2019-03-30T14:15:14.537Z,8.90
2019-03-30T14:17:42.949Z,8.55
2019-03-30T14:20:11.445Z,10.05
2019-03-30T14:22:39.936Z,10.00
2019-03-30T14:25:08.428Z,8.65
2019-03-30T14:27:36.841Z,9.60
2019-03-30T14:30:10.224Z,11.03
2019-03-30T14:32:38.769Z,8.83
2019-03-30T14:35:07.543Z,8.45
2019-03-30T14:37:38.502Z,8.28
2019-03-30T14:40:07.748Z,9.28
2019-03-30T14:42:36.264Z,9.78
2019-03-30T14:45:07.591Z,10.08
2019-03-30T14:47:36.032Z,8.53
2019-03-30T14:50:07.372Z,10.00
2019-03-30T14:52:36.064Z,9.50
2019-03-30T14:55:06.783Z,9.28
2019-03-30T14:57:35.193Z,10.85
2019-03-30T15:00:04.257Z,10.68
2019-03-30T15:02:32.679Z,10.53
2019-03-30T15:05:01.643Z,10.10
2019-03-30T15:07:30.288Z,10.58
2019-03-30T15:09:58.712Z,8.63
2019-03-30T15:12:27.204Z,8.48
2019-03-30T15:14:55.642Z,8.43
2019-03-30T15:17:24.108Z,7.40
2019-03-30T15:19:52.604Z,7.40
2019-03-30T15:22:21.096Z,7.28
2019-03-30T15:24:49.520Z,6.65
2019-03-30T15:27:17.937Z,7.20
2019-03-30T15:29:46.348Z,6.65
2019-03-30T15:32:14.892Z,7.72
2019-03-30T15:34:43.280Z,7.37
2019-03-30T15:37:11.872Z,7.67
2019-03-30T15:39:40.508Z,6.67
2019-03-30T15:42:08.920Z,6.50
2019-03-30T15:44:37.424Z,6.20
2019-03-30T15:47:05.841Z,6.83
2019-03-30T15:49:34.336Z,6.90
2019-03-30T15:52:13.363Z,6.75
2019-03-30T15:54:33.040Z,6.25
2019-03-30T15:57:13.571Z,8.03
2019-03-30T15:59:31.684Z,6.92
2019-03-30T16:02:00.188Z,7.90
2019-03-30T16:04:28.621Z,7.85
2019-03-30T16:06:57.105Z,7.65
2019-03-30T16:09:25.604Z,6.50
2019-03-30T16:11:54.096Z,6.92
2019-03-30T16:14:22.513Z,6.67
2019-03-30T16:16:51.004Z,7.08
2019-03-30T16:19:19.496Z,12.63
2019-03-30T16:21:49.622Z,8.10
2019-03-30T16:24:18.063Z,7.95
2019-03-30T16:26:46.573Z,8.90
2019-03-30T16:29:15.056Z,7.20
2019-03-30T16:31:43.481Z,7.28
2019-03-30T16:34:11.976Z,7.20
2019-03-30T16:36:40.545Z,6.83
2019-03-30T16:39:09.044Z,6.45
2019-03-30T16:41:37.552Z,7.60
2019-03-30T16:44:06.072Z,7.33
2019-03-30T16:46:34.476Z,8.68
2019-03-30T16:49:02.963Z,9.18
2019-03-30T16:51:31.471Z,10.23
2019-03-30T16:53:59.888Z,10.45
2019-03-30T16:56:28.305Z,9.73
2019-03-30T16:58:56.725Z,10.63
2019-03-30T17:01:25.219Z,9.95
2019-03-30T17:03:53.676Z,10.18
2019-03-30T17:06:22.092Z,11.28
2019-03-30T17:08:50.585Z,12.05
2019-03-30T17:11:19.080Z,12.55
2019-03-30T17:13:47.497Z,14.15
2019-03-30T17:16:15.997Z,13.22
2019-03-30T17:18:44.415Z,10.98
2019-03-30T17:21:12.828Z,14.75
2019-03-30T17:23:41.313Z,9.95
2019-03-30T17:26:09.801Z,9.78
2019-03-30T17:28:38.289Z,11.57
2019-03-30T17:31:06.781Z,11.83
2019-03-30T17:33:36.389Z,11.18
2019-03-30T17:36:05.388Z,11.30
2019-03-30T17:38:33.868Z,13.18
2019-03-30T17:41:02.279Z,12.13
2019-03-30T17:43:30.768Z,11.15
2019-03-30T17:45:59.191Z,12.23
2019-03-30T17:48:29.557Z,12.68
2019-03-30T17:50:58.596Z,12.23
2019-03-30T17:53:27.210Z,11.85
2019-03-30T17:55:55.728Z,11.68
2019-03-30T17:58:24.218Z,12.75
2019-03-30T18:00:52.796Z,11.97
2019-03-30T18:03:21.389Z,11.40
2019-03-30T18:05:49.801Z,14.80
2019-03-30T18:08:18.287Z,11.33
2019-03-30T18:10:46.845Z,10.90
2019-03-30T18:13:15.337Z,10.82
2019-03-30T18:15:43.769Z,11.10
2019-03-30T18:18:12.184Z,11.30
2019-03-30T18:20:40.608Z,11.08
2019-03-30T18:23:09.153Z,10.63
2019-03-30T18:25:37.590Z,11.93
2019-03-30T18:28:06.087Z,11.97
2019-03-30T18:30:36.757Z,11.80
2019-03-30T18:33:05.587Z,12.18
2019-03-30T18:35:34.192Z,12.13
2019-03-30T18:38:05.645Z,12.65
2019-03-30T18:40:34.138Z,13.35
2019-03-30T18:43:03.337Z,15.18
2019-03-30T18:45:33.859Z,14.25
2019-03-30T18:48:16.012Z,14.45
2019-03-30T18:50:44.823Z,14.98
2019-03-30T18:53:14.287Z,15.23
2019-03-30T18:55:42.760Z,15.88
2019-03-30T18:58:11.324Z,14.87
2019-03-30T19:00:39.811Z,14.30
2019-03-30T19:03:08.313Z,14.25
2019-03-30T19:05:36.881Z,14.90
2019-03-30T19:08:05.323Z,15.90
2019-03-30T19:10:33.814Z,16.62
2019-03-30T19:13:02.368Z,14.85
2019-03-30T19:15:30.864Z,16.75
2019-03-30T19:17:59.351Z,17.67
2019-03-30T19:20:27.840Z,17.52
2019-03-30T19:22:56.283Z,18.27
2019-03-30T19:25:24.757Z,17.42
2019-03-30T19:27:53.176Z,16.97
2019-03-30T19:30:21.713Z,18.35
2019-03-30T19:32:50.201Z,20.92
2019-03-30T19:35:18.692Z,19.92
2019-03-30T19:37:47.104Z,20.10
2019-03-30T19:40:15.595Z,21.85
2019-03-30T19:42:44.082Z,21.97
2019-03-30T19:45:12.674Z,22.65
2019-03-30T19:47:41.160Z,23.85
2019-03-30T19:50:09.851Z,28.40
2019-03-30T19:52:40.016Z,26.07
2019-03-30T19:55:08.440Z,26.42
2019-03-30T19:57:36.854Z,25.57
2019-03-30T20:00:08.109Z,25.82
2019-03-30T20:02:36.605Z,26.37
2019-03-30T20:05:06.491Z,27.02
2019-03-30T20:07:34.977Z,27.55
2019-03-30T20:10:03.466Z,28.30
2019-03-30T20:12:32.066Z,27.27
2019-03-30T20:15:00.724Z,28.60
2019-03-30T20:17:29.213Z,28.60
2019-03-30T20:19:57.624Z,29.07
2019-03-30T20:22:26.117Z,30.17
2019-03-30T20:24:54.604Z,31.48
2019-03-30T20:27:23.103Z,32.48
2019-03-30T20:29:51.585Z,31.65
2019-03-30T20:32:20.159Z,32.28
2019-03-30T20:34:48.673Z,33.50
2019-03-30T20:37:17.161Z,34.40
2019-03-30T20:39:45.657Z,32.13
2019-03-30T20:42:14.147Z,34.58
2019-03-30T20:44:42.635Z,34.05
2019-03-30T20:47:11.124Z,34.70
2019-03-30T20:49:39.724Z,35.63
2019-03-30T20:52:08.219Z,37.53
2019-03-30T20:54:36.798Z,36.15
2019-03-30T20:57:05.292Z,37.25
2019-03-30T20:59:39.801Z,37.40
2019-03-30T21:02:03.935Z,37.88
2019-03-30T21:04:32.417Z,36.17
2019-03-30T21:07:00.840Z,38.88
2019-03-30T21:09:29.357Z,37.78
2019-03-30T21:11:57.922Z,39.40
2019-03-30T21:14:26.468Z,37.45
2019-03-30T21:16:55.004Z,39.90
2019-03-30T21:19:23.424Z,38.48
2019-03-30T21:21:51.835Z,39.15
2019-03-30T21:24:20.328Z,40.10
2019-03-30T21:26:48.837Z,38.08
2019-03-30T21:29:17.363Z,36.77
2019-03-30T21:31:49.142Z,37.65
2019-03-30T21:34:15.988Z,38.40
2019-03-30T21:36:44.472Z,39.58
2019-03-30T21:39:12.887Z,38.17
2019-03-30T21:41:41.291Z,36.83
2019-03-30T21:44:21.317Z,36.68
2019-03-30T21:46:39.847Z,34.88
2019-03-30T21:49:08.344Z,33.35
2019-03-30T21:51:36.767Z,34.90
2019-03-30T21:54:05.173Z,32.50
2019-03-30T21:56:33.769Z,33.67
2019-03-30T21:59:02.623Z,33.48
2019-03-30T22:01:31.045Z,33.08
2019-03-30T22:03:59.534Z,30.60
2019-03-30T22:06:27.944Z,30.15
2019-03-30T22:08:56.446Z,30.25
2019-03-30T22:11:24.862Z,29.20
2019-03-30T22:13:53.290Z,29.32
2019-03-30T22:16:21.765Z,27.32
2019-03-30T22:18:50.253Z,28.80
2019-03-30T22:21:18.736Z,29.70
2019-03-30T22:23:47.207Z,28.70
2019-03-30T22:26:15.632Z,26.48
2019-03-30T22:28:44.051Z,25.52
2019-03-30T22:31:12.475Z,27.02
2019-03-30T22:33:40.957Z,27.20
2019-03-30T22:36:09.433Z,28.10
2019-03-30T22:38:37.865Z,28.15
2019-03-30T22:41:06.332Z,28.05
2019-03-30T22:43:34.824Z,27.95
2019-03-30T22:46:03.382Z,27.22
2019-03-30T22:48:31.872Z,25.55
2019-03-30T22:51:00.410Z,26.25
2019-03-30T22:53:28.780Z,25.65
2019-03-30T22:55:57.203Z,26.93
2019-03-30T22:58:25.684Z,28.02
2019-03-30T23:00:56.018Z,27.67
2019-03-30T23:03:24.502Z,27.62
2019-03-30T23:05:54.555Z,26.27
2019-03-30T23:08:26.033Z,27.30
2019-03-30T23:10:59.373Z,27.73
2019-03-30T23:13:30.735Z,25.95
2019-03-30T23:15:59.151Z,25.57
2019-03-30T23:18:31.562Z,26.02
2019-03-30T23:23:29.720Z,25.55
2019-03-30T23:25:58.212Z,26.93
2019-03-30T23:28:27.924Z,26.12
2019-03-30T23:30:58.890Z,26.33
2019-03-30T23:33:27.272Z,26.23
2019-03-30T23:35:55.701Z,26.70
2019-03-30T23:38:24.258Z,27.48
2019-03-30T23:40:52.745Z,25.35
2019-03-30T23:43:21.233Z,27.13
2019-03-30T23:45:51.817Z,29.85
2019-03-30T23:48:22.500Z,29.10
2019-03-30T23:50:50.912Z,29.18
2019-03-30T23:53:19.406Z,31.82
2019-03-30T23:55:49.020Z,30.10
2019-03-30T23:58:17.501Z,30.62
